Trumann, Arkansas
Current Conditions -  °F | °C
As of 5:53 PM on Friday 21 Nov 2014 (Local Time) from KJBR Reporting Station
Overcast Overcast  
Wind Chill: 40°   Ceiling: 7000
Heat Index: 44°   Visibility: 10mi
Dew Point: 42°   Wind: 7mph
Humidity: 93%   Direction: 50°NE
Pressure: 30.3"   Gusts: NA
Location:  35.66°N, 90.51°W
Report Text: KJBR 212353Z AUTO 05006KT 10SM OVC070 07/06 A3030 RMK AO2 SLP261 60003 T00670056 10083 20067 53001
Loading
Personal Weather Stations






























Interactive Weather Map New forecast layout! Learn more

10-Day Weather Forecast

Advertisements
Track Severe Weather on mobile